VTM weather

Nevatim Air Base
Beersheba, Southern District, Israel

Public forecast

Using degrees Celsius for public forecast. Weather courtesy of forecast.io.

METAR (pilot weather report)

Closest report is Ben Gurion International Airport, 48.6 nm (90.1 km) N. Retrieved 2019/02/18 06:20 UTC (11 minutes ago):

LLBG 180620Z 18004KT CAVOK 11/06 Q1020 NOSIG RMK FEW060 BKN080

TAF (pilot weather forecast)

Forecast is more than 12 hours old.

Closest forecast is El Gora Airport, 46.1 nm (85.4 km) W. Retrieved 2018/10/31 07:00 UTC (4 months ago):

TAF HEGR 310700Z 3107/0112 34009KT 9999 SCT020 BECMG 3119/3121 VRB03KT CAVOK BECMG 0107/0109 36008KT